Kingstown, North Carolina
Current Conditions -  °F | °C
As of 9:35 AM on Friday 31 Oct 2014 (Local Time) from KEHO Reporting Station
Clear Clear  
Wind Chill: 43°   Ceiling: Unl
Heat Index: 47°   Visibility: 10mi
Dew Point: 38°   Wind: 9mph
Humidity: 71%   Direction: 30°NNE
Pressure: 29.97"   Gusts: NA
Location:  35.3693°N, 81.5992°W
Report Text: KEHO 311335Z AUTO 03008KT 10SM CLR 08/03 A2997 RMK AO2 T00830034
Loading
Personal Weather Stations






























Interactive Weather Map
Tropical Storm Tracking
New forecast layout! Learn more

10-Day Weather Forecast

Advertisements
Track Severe Weather on mobile